Airfield :
LOGIN :

Register | Disclaimer

   EN    FR    IT 

 










Legend :    VFR   Marginal VFR   IFR   Intensive IFR   Very Intensive IFR
Visi :
Ceiling :
>= 8 km
>= 3000ft
5 to 8 km
1000 to 3000 ft
1500m to 5 km
500 to 1000 ft
800 to 1500m
200 to 500 ft
< 800m
< 200 ft
Symbols :   Thunderstorms  Fog  Heavy snow  Heavy precipitations  Wind > 20 kt
SIGMETs :     Misc.  Thunderstorms  Icing  Turbulence  Mountain Waves  Volcanic Ashes






- Airport Elevation : 0 ft


ENSL - Sleipner A Platform

CURRENT METAR :
  • 310650Z AUTO 09017KT 9999NDV NCD 15/M06 Q1030 W08/S3

EXPIRED METARs :
  • 310620Z AUTO 08015KT 9999NDV FEW075/// 16/M03 Q1030 W08/S3
  • 310550Z AUTO 09010KT 9999NDV FEW075/// 16/00 Q1030 W08/S3
  • 310520Z AUTO 09011KT 9999NDV NCD 16/M03 Q1030 W08/S3
  • 310450Z AUTO 10009KT 9999NDV NCD 15/M10 Q1030 W07/S3
  • 310420Z AUTO 10011KT 9999NDV NCD 15/M04 Q1030 W07/S3
  • 310350Z AUTO 10010KT 9999NDV NCD 14/M02 Q1030 W08/S4

Expired Forecast.



MET'MAP, your aeronautical weather chart ! - Copyright ORBIFLY December 2007 - Disclaimer

ORBIFLY MET'MAP TEAM :

Programming & Development : Alexandra Zaïnal
Concept & original design : Baudouin d'Aumeries
Assistance for programming : Marc-Olivier Méhu
Technical & hardware support : Manuel Goepfert

Contact : metmap@orbifly.com




SOURCES & CREDITS :

   NOAA